Moran, Wyoming
Current Conditions -  °F | °C
As of 11:52 AM on Tuesday 21 Oct 2014 (Local Time) from KJAC Reporting Station
Rain Showers Rain Showers  
Wind Chill: 41°   Ceiling: 3000
Heat Index: 45°   Visibility: 8mi
Dew Point: 43°   Wind: 6mph
Humidity: 93%   Direction: 220°SW
Pressure: 29.98"   Gusts: NA
Location:  43.84°N, 110.51°W
Report Text: KJAC 211752Z 22005KT 8SM VCSH BKN030 OVC040 07/06 A2998 RMK RSC WET
Loading
Personal Weather Stations






























Interactive Weather Map
Tropical Storm Tracking
New forecast layout! Learn more

10-Day Weather Forecast

Advertisements
Track Severe Weather on mobile